sensor_id;sensor_type;location;lat;lon;timestamp;pressure;altitude;pressure_sealevel;temperature;humidity
9855;BME280;4966;48.112;9.282;2023-01-31T00:00:28;95535.50;;;0.42;84.50
9855;BME280;4966;48.112;9.282;2023-01-31T00:02:54;95526.63;;;0.37;84.78
9855;BME280;4966;48.112;9.282;2023-01-31T00:05:19;95528.81;;;0.18;84.71
9855;BME280;4966;48.112;9.282;2023-01-31T00:07:45;95538.31;;;0.04;85.31
9855;BME280;4966;48.112;9.282;2023-01-31T00:10:11;95527.78;;;-0.03;85.00
9855;BME280;4966;48.112;9.282;2023-01-31T00:12:37;95533.03;;;-0.13;84.96
9855;BME280;4966;48.112;9.282;2023-01-31T00:15:03;95528.78;;;-0.31;87.13
9855;BME280;4966;48.112;9.282;2023-01-31T00:17:28;95530.66;;;-0.32;86.97
9855;BME280;4966;48.112;9.282;2023-01-31T00:19:53;95529.22;;;-0.39;88.18
9855;BME280;4966;48.112;9.282;2023-01-31T00:22:19;95520.06;;;-0.44;87.94
9855;BME280;4966;48.112;9.282;2023-01-31T00:24:44;95518.72;;;-0.46;87.44
9855;BME280;4966;48.112;9.282;2023-01-31T00:27:09;95518.75;;;-0.63;89.68
9855;BME280;4966;48.112;9.282;2023-01-31T00:29:35;95510.50;;;-0.61;90.36
9855;BME280;4966;48.112;9.282;2023-01-31T00:32:00;95516.66;;;-0.61;90.84
9855;BME280;4966;48.112;9.282;2023-01-31T00:34:26;95506.91;;;-0.50;89.06
9855;BME280;4966;48.112;9.282;2023-01-31T00:36:51;95503.13;;;-0.54;88.58
9855;BME280;4966;48.112;9.282;2023-01-31T00:39:16;95503.13;;;-0.54;87.80
9855;BME280;4966;48.112;9.282;2023-01-31T00:41:42;95504.03;;;-0.66;87.56
9855;BME280;4966;48.112;9.282;2023-01-31T00:44:07;95514.66;;;-0.71;87.89
9855;BME280;4966;48.112;9.282;2023-01-31T00:46:33;95503.78;;;-0.64;87.78
9855;BME280;4966;48.112;9.282;2023-01-31T00:48:58;95499.81;;;-0.61;87.68
9855;BME280;4966;48.112;9.282;2023-01-31T00:51:25;95510.09;;;-0.70;87.58
9855;BME280;4966;48.112;9.282;2023-01-31T00:53:50;95507.13;;;-0.74;87.66
9855;BME280;4966;48.112;9.282;2023-01-31T00:56:19;95508.44;;;-0.76;87.70
9855;BME280;4966;48.112;9.282;2023-01-31T00:58:47;95506.25;;;-0.96;88.47
9855;BME280;4966;48.112;9.282;2023-01-31T01:03:42;95522.88;;;-1.11;89.12
9855;BME280;4966;48.112;9.282;2023-01-31T01:06:08;95514.84;;;-1.11;88.59
9855;BME280;4966;48.112;9.282;2023-01-31T01:08:35;95523.09;;;-1.30;89.84
9855;BME280;4966;48.112;9.282;2023-01-31T01:11:12;95520.84;;;-1.21;89.25
9855;BME280;4966;48.112;9.282;2023-01-31T01:13:38;95521.41;;;-1.19;88.46
9855;BME280;4966;48.112;9.282;2023-01-31T01:16:21;95519.56;;;-1.35;89.75
9855;BME280;4966;48.112;9.282;2023-01-31T01:18:47;95517.69;;;-1.18;88.09
9855;BME280;4966;48.112;9.282;2023-01-31T01:21:19;95523.84;;;-1.17;87.35
9855;BME280;4966;48.112;9.282;2023-01-31T01:23:45;95525.75;;;-1.13;86.54
9855;BME280;4966;48.112;9.282;2023-01-31T01:26:25;95524.81;;;-1.23;86.06
9855;BME280;4966;48.112;9.282;2023-01-31T01:28:53;95530.06;;;-1.29;85.50
9855;BME280;4966;48.112;9.282;2023-01-31T01:31:20;95524.13;;;-1.64;86.49
9855;BME280;4966;48.112;9.282;2023-01-31T01:33:47;95532.00;;;-1.58;85.76
9855;BME280;4966;48.112;9.282;2023-01-31T01:36:15;95529.28;;;-1.75;86.41
9855;BME280;4966;48.112;9.282;2023-01-31T01:38:41;95526.38;;;-1.73;86.24
9855;BME280;4966;48.112;9.282;2023-01-31T01:41:09;95522.59;;;-1.77;86.08
9855;BME280;4966;48.112;9.282;2023-01-31T01:46:17;95524.38;;;-1.95;86.49
9855;BME280;4966;48.112;9.282;2023-01-31T01:48:47;95535.03;;;-1.95;86.42
9855;BME280;4966;48.112;9.282;2023-01-31T01:51:15;95520.34;;;-1.97;86.71
9855;BME280;4966;48.112;9.282;2023-01-31T01:53:46;95527.44;;;-2.03;86.35
9855;BME280;4966;48.112;9.282;2023-01-31T01:56:18;95517.19;;;-1.94;86.11
9855;BME280;4966;48.112;9.282;2023-01-31T01:58:49;95540.28;;;-2.00;86.32
9855;BME280;4966;48.112;9.282;2023-01-31T02:01:17;95538.69;;;-2.01;86.60
9855;BME280;4966;48.112;9.282;2023-01-31T02:03:44;95530.09;;;-2.03;87.32
9855;BME280;4966;48.112;9.282;2023-01-31T02:06:10;95534.47;;;-1.97;87.36
9855;BME280;4966;48.112;9.282;2023-01-31T02:08:38;95535.47;;;-1.86;87.67
9855;BME280;4966;48.112;9.282;2023-01-31T02:13:38;95544.91;;;-1.66;88.03
9855;BME280;4966;48.112;9.282;2023-01-31T02:16:04;95539.81;;;-1.51;87.65
9855;BME280;4966;48.112;9.282;2023-01-31T02:18:30;95546.50;;;-1.65;87.25
9855;BME280;4966;48.112;9.282;2023-01-31T02:24:26;95560.16;;;-1.33;87.92
9855;BME280;4966;48.112;9.282;2023-01-31T02:30:32;95565.44;;;-1.21;89.21
9855;BME280;4966;48.112;9.282;2023-01-31T02:45:02;95554.97;;;-1.23;87.81
9855;BME280;4966;48.112;9.282;2023-01-31T02:50:42;95554.47;;;-1.37;87.66
9855;BME280;4966;48.112;9.282;2023-01-31T02:58:27;95548.66;;;-1.51;86.88
9855;BME280;4966;48.112;9.282;2023-01-31T03:00:57;95558.56;;;-1.63;87.00
9855;BME280;4966;48.112;9.282;2023-01-31T03:03:32;95549.53;;;-1.62;86.77
9855;BME280;4966;48.112;9.282;2023-01-31T03:06:08;95545.31;;;-1.75;87.00
9855;BME280;4966;48.112;9.282;2023-01-31T03:08:36;95535.91;;;-1.77;86.97
9855;BME280;4966;48.112;9.282;2023-01-31T03:11:04;95544.88;;;-1.83;86.84
9855;BME280;4966;48.112;9.282;2023-01-31T03:13:46;95551.03;;;-1.95;87.13
9855;BME280;4966;48.112;9.282;2023-01-31T03:16:37;95555.34;;;-1.94;87.55
9855;BME280;4966;48.112;9.282;2023-01-31T03:19:33;95558.69;;;-1.86;86.87
9855;BME280;4966;48.112;9.282;2023-01-31T03:22:05;95554.06;;;-1.91;87.07
9855;BME280;4966;48.112;9.282;2023-01-31T03:24:32;95564.66;;;-2.08;88.13
9855;BME280;4966;48.112;9.282;2023-01-31T03:26:59;95567.28;;;-1.96;87.73
9855;BME280;4966;48.112;9.282;2023-01-31T03:29:27;95570.47;;;-1.82;86.74
9855;BME280;4966;48.112;9.282;2023-01-31T03:44:38;95586.72;;;-2.24;87.97
9855;BME280;4966;48.112;9.282;2023-01-31T03:47:16;95582.41;;;-2.25;88.23
9855;BME280;4966;48.112;9.282;2023-01-31T03:49:44;95574.69;;;-2.27;87.83
9855;BME280;4966;48.112;9.282;2023-01-31T03:52:12;95578.88;;;-2.43;87.70
9855;BME280;4966;48.112;9.282;2023-01-31T03:54:45;95570.53;;;-2.34;88.10
9855;BME280;4966;48.112;9.282;2023-01-31T03:57:29;95577.06;;;-2.14;89.13
9855;BME280;4966;48.112;9.282;2023-01-31T03:59:57;95587.75;;;-2.25;89.10
9855;BME280;4966;48.112;9.282;2023-01-31T04:02:28;95572.75;;;-2.03;89.57
9855;BME280;4966;48.112;9.282;2023-01-31T04:05:08;95581.53;;;-1.90;89.99
9855;BME280;4966;48.112;9.282;2023-01-31T04:07:34;95582.28;;;-1.78;89.64
9855;BME280;4966;48.112;9.282;2023-01-31T04:10:00;95601.81;;;-1.61;90.08
9855;BME280;4966;48.112;9.282;2023-01-31T04:12:26;95596.88;;;-1.40;89.70
9855;BME280;4966;48.112;9.282;2023-01-31T04:14:51;95598.91;;;-1.31;89.77
9855;BME280;4966;48.112;9.282;2023-01-31T04:17:17;95599.19;;;-1.44;86.95
9855;BME280;4966;48.112;9.282;2023-01-31T04:19:42;95606.25;;;-1.66;86.86
9855;BME280;4966;48.112;9.282;2023-01-31T04:22:08;95611.09;;;-1.63;86.59
9855;BME280;4966;48.112;9.282;2023-01-31T04:24:33;95609.06;;;-1.73;86.74
9855;BME280;4966;48.112;9.282;2023-01-31T04:26:58;95607.53;;;-1.69;86.93
9855;BME280;4966;48.112;9.282;2023-01-31T04:29:24;95612.06;;;-1.69;87.70
9855;BME280;4966;48.112;9.282;2023-01-31T04:31:49;95612.84;;;-1.57;87.55
9855;BME280;4966;48.112;9.282;2023-01-31T04:34:15;95605.91;;;-1.70;86.39
9855;BME280;4966;48.112;9.282;2023-01-31T04:36:40;95615.31;;;-1.67;87.30
9855;BME280;4966;48.112;9.282;2023-01-31T04:39:05;95606.88;;;-1.76;86.98
9855;BME280;4966;48.112;9.282;2023-01-31T04:41:31;95616.25;;;-1.74;86.00
9855;BME280;4966;48.112;9.282;2023-01-31T04:43:56;95619.75;;;-1.85;86.08
9855;BME280;4966;48.112;9.282;2023-01-31T04:46:22;95619.44;;;-1.88;86.12
9855;BME280;4966;48.112;9.282;2023-01-31T04:48:47;95612.22;;;-1.76;86.48
9855;BME280;4966;48.112;9.282;2023-01-31T04:51:12;95629.38;;;-1.72;86.76
9855;BME280;4966;48.112;9.282;2023-01-31T04:53:38;95629.91;;;-1.70;87.15
9855;BME280;4966;48.112;9.282;2023-01-31T04:56:04;95628.88;;;-1.69;87.66
9855;BME280;4966;48.112;9.282;2023-01-31T04:58:30;95626.00;;;-1.67;89.04
9855;BME280;4966;48.112;9.282;2023-01-31T05:00:55;95630.22;;;-1.55;88.82
9855;BME280;4966;48.112;9.282;2023-01-31T05:03:21;95632.81;;;-1.31;88.27
9855;BME280;4966;48.112;9.282;2023-01-31T05:05:50;95625.19;;;-1.22;87.60
9855;BME280;4966;48.112;9.282;2023-01-31T05:08:16;95622.03;;;-1.65;88.10
9855;BME280;4966;48.112;9.282;2023-01-31T05:10:41;95624.69;;;-1.36;87.70
9855;BME280;4966;48.112;9.282;2023-01-31T05:13:08;95639.47;;;-1.45;87.37
9855;BME280;4966;48.112;9.282;2023-01-31T05:15:33;95630.78;;;-1.24;85.95
9855;BME280;4966;48.112;9.282;2023-01-31T05:17:59;95628.53;;;-1.15;84.59
9855;BME280;4966;48.112;9.282;2023-01-31T05:20:33;95633.66;;;-1.42;85.41
9855;BME280;4966;48.112;9.282;2023-01-31T05:23:01;95637.16;;;-1.54;85.18
9855;BME280;4966;48.112;9.282;2023-01-31T05:25:27;95634.00;;;-1.67;85.24
9855;BME280;4966;48.112;9.282;2023-01-31T05:27:52;95627.72;;;-1.73;86.00
9855;BME280;4966;48.112;9.282;2023-01-31T05:30:18;95628.78;;;-1.74;86.80
9855;BME280;4966;48.112;9.282;2023-01-31T05:32:44;95628.03;;;-1.58;86.89
9855;BME280;4966;48.112;9.282;2023-01-31T05:35:11;95634.03;;;-1.51;86.96
9855;BME280;4966;48.112;9.282;2023-01-31T05:37:36;95635.13;;;-1.35;86.66
9855;BME280;4966;48.112;9.282;2023-01-31T05:40:02;95638.66;;;-1.17;85.34
9855;BME280;4966;48.112;9.282;2023-01-31T05:42:27;95645.56;;;-1.33;86.82
9855;BME280;4966;48.112;9.282;2023-01-31T05:44:52;95638.81;;;-1.24;87.07
9855;BME280;4966;48.112;9.282;2023-01-31T05:47:18;95636.69;;;-1.22;86.93
9855;BME280;4966;48.112;9.282;2023-01-31T05:49:43;95641.97;;;-1.10;87.71
9855;BME280;4966;48.112;9.282;2023-01-31T05:52:08;95630.38;;;-1.16;87.26
9855;BME280;4966;48.112;9.282;2023-01-31T05:54:34;95639.84;;;-1.08;87.47
9855;BME280;4966;48.112;9.282;2023-01-31T05:56:59;95649.81;;;-1.03;87.22
9855;BME280;4966;48.112;9.282;2023-01-31T05:59:24;95658.13;;;-1.34;88.34
9855;BME280;4966;48.112;9.282;2023-01-31T06:01:50;95656.06;;;-1.15;88.42
9855;BME280;4966;48.112;9.282;2023-01-31T06:04:16;95659.94;;;-1.05;88.68
9855;BME280;4966;48.112;9.282;2023-01-31T06:06:41;95662.53;;;-0.94;88.16
9855;BME280;4966;48.112;9.282;2023-01-31T06:09:07;95650.56;;;-0.74;86.52
9855;BME280;4966;48.112;9.282;2023-01-31T06:11:33;95660.94;;;-0.78;87.02
9855;BME280;4966;48.112;9.282;2023-01-31T06:13:58;95663.75;;;-0.84;87.42
9855;BME280;4966;48.112;9.282;2023-01-31T06:16:23;95657.97;;;-0.65;87.41
9855;BME280;4966;48.112;9.282;2023-01-31T06:18:49;95662.31;;;-0.75;87.51
9855;BME280;4966;48.112;9.282;2023-01-31T06:21:14;95666.38;;;-0.73;87.77
9855;BME280;4966;48.112;9.282;2023-01-31T06:23:40;95662.81;;;-0.61;87.41
9855;BME280;4966;48.112;9.282;2023-01-31T06:26:10;95662.81;;;-0.45;85.47
9855;BME280;4966;48.112;9.282;2023-01-31T06:28:36;95669.03;;;-0.56;86.04
9855;BME280;4966;48.112;9.282;2023-01-31T06:31:08;95670.69;;;-0.72;86.42
9855;BME280;4966;48.112;9.282;2023-01-31T06:33:34;95663.97;;;-0.57;86.49
9855;BME280;4966;48.112;9.282;2023-01-31T06:36:00;95672.44;;;-0.60;86.93
9855;BME280;4966;48.112;9.282;2023-01-31T06:38:26;95665.88;;;-0.70;86.81
9855;BME280;4966;48.112;9.282;2023-01-31T06:40:51;95671.88;;;-0.62;87.04
9855;BME280;4966;48.112;9.282;2023-01-31T06:43:17;95674.53;;;-0.46;86.40
9855;BME280;4966;48.112;9.282;2023-01-31T06:45:42;95675.59;;;-0.47;86.35
9855;BME280;4966;48.112;9.282;2023-01-31T06:48:09;95676.00;;;-0.38;86.15
9855;BME280;4966;48.112;9.282;2023-01-31T06:50:34;95683.03;;;-0.32;85.81
9855;BME280;4966;48.112;9.282;2023-01-31T06:53:00;95682.97;;;-0.37;86.08
9855;BME280;4966;48.112;9.282;2023-01-31T06:55:25;95687.00;;;-0.34;85.91
9855;BME280;4966;48.112;9.282;2023-01-31T06:57:51;95673.91;;;-0.36;85.65
9855;BME280;4966;48.112;9.282;2023-01-31T07:00:17;95677.13;;;-0.34;85.66
9855;BME280;4966;48.112;9.282;2023-01-31T07:02:43;95675.59;;;-0.30;85.73
9855;BME280;4966;48.112;9.282;2023-01-31T07:05:08;95684.25;;;-0.23;84.93
9855;BME280;4966;48.112;9.282;2023-01-31T07:07:34;95679.59;;;-0.10;84.47
9855;BME280;4966;48.112;9.282;2023-01-31T07:09:59;95687.91;;;-0.29;84.81
9855;BME280;4966;48.112;9.282;2023-01-31T07:12:26;95690.09;;;-0.26;85.39
9855;BME280;4966;48.112;9.282;2023-01-31T07:14:51;95696.19;;;-0.30;85.75
9855;BME280;4966;48.112;9.282;2023-01-31T07:17:17;95685.22;;;-0.12;85.25
9855;BME280;4966;48.112;9.282;2023-01-31T07:19:45;95700.69;;;-0.14;85.49
9855;BME280;4966;48.112;9.282;2023-01-31T07:22:10;95689.00;;;-0.08;85.76
9855;BME280;4966;48.112;9.282;2023-01-31T07:24:35;95689.41;;;0.01;85.27
9855;BME280;4966;48.112;9.282;2023-01-31T07:27:01;95688.91;;;0.04;85.62
9855;BME280;4966;48.112;9.282;2023-01-31T07:29:26;95682.06;;;0.13;85.75
9855;BME280;4966;48.112;9.282;2023-01-31T07:31:53;95675.47;;;0.21;84.49
9855;BME280;4966;48.112;9.282;2023-01-31T07:34:18;95676.78;;;0.18;85.30
9855;BME280;4966;48.112;9.282;2023-01-31T07:36:49;95680.59;;;0.23;84.52
9855;BME280;4966;48.112;9.282;2023-01-31T07:39:15;95675.00;;;0.24;84.09
9855;BME280;4966;48.112;9.282;2023-01-31T07:41:41;95677.41;;;0.26;83.06
9855;BME280;4966;48.112;9.282;2023-01-31T07:44:07;95662.09;;;0.21;83.16
9855;BME280;4966;48.112;9.282;2023-01-31T07:46:35;95672.88;;;0.26;83.47
9855;BME280;4966;48.112;9.282;2023-01-31T07:49:00;95679.94;;;-0.07;84.32
9855;BME280;4966;48.112;9.282;2023-01-31T07:51:26;95667.00;;;-0.32;85.90
9855;BME280;4966;48.112;9.282;2023-01-31T07:53:51;95655.50;;;0.07;85.07
9855;BME280;4966;48.112;9.282;2023-01-31T07:56:19;95650.09;;;0.24;84.24
9855;BME280;4966;48.112;9.282;2023-01-31T07:58:46;95653.50;;;0.19;84.02
9855;BME280;4966;48.112;9.282;2023-01-31T08:01:14;95662.03;;;0.16;83.61
9855;BME280;4966;48.112;9.282;2023-01-31T08:03:58;95665.06;;;0.19;83.74
9855;BME280;4966;48.112;9.282;2023-01-31T08:06:24;95668.94;;;0.12;83.91
9855;BME280;4966;48.112;9.282;2023-01-31T08:08:49;95672.22;;;-0.03;84.37
9855;BME280;4966;48.112;9.282;2023-01-31T08:11:15;95669.50;;;0.14;83.65
9855;BME280;4966;48.112;9.282;2023-01-31T08:13:40;95665.78;;;0.37;82.97
9855;BME280;4966;48.112;9.282;2023-01-31T08:16:07;95661.91;;;0.50;82.28
9855;BME280;4966;48.112;9.282;2023-01-31T08:18:34;95661.66;;;0.07;83.26
9855;BME280;4966;48.112;9.282;2023-01-31T08:21:00;95663.41;;;0.18;83.12
9855;BME280;4966;48.112;9.282;2023-01-31T08:23:28;95671.06;;;0.10;83.09
9855;BME280;4966;48.112;9.282;2023-01-31T08:26:03;95656.81;;;0.26;83.53
9855;BME280;4966;48.112;9.282;2023-01-31T08:28:30;95651.34;;;0.16;83.47
9855;BME280;4966;48.112;9.282;2023-01-31T08:30:56;95662.31;;;0.36;83.50
9855;BME280;4966;48.112;9.282;2023-01-31T08:33:21;95651.91;;;0.40;83.13
9855;BME280;4966;48.112;9.282;2023-01-31T08:35:47;95651.97;;;0.45;82.83
9855;BME280;4966;48.112;9.282;2023-01-31T08:38:12;95653.09;;;0.49;82.63
9855;BME280;4966;48.112;9.282;2023-01-31T08:40:38;95661.88;;;0.45;82.63
9855;BME280;4966;48.112;9.282;2023-01-31T08:43:03;95664.44;;;0.34;83.01
9855;BME280;4966;48.112;9.282;2023-01-31T08:45:29;95657.94;;;0.52;82.21
9855;BME280;4966;48.112;9.282;2023-01-31T08:47:59;95651.22;;;0.50;82.43
9855;BME280;4966;48.112;9.282;2023-01-31T08:50:25;95652.38;;;0.59;81.66
9855;BME280;4966;48.112;9.282;2023-01-31T08:52:52;95654.78;;;0.55;82.03
9855;BME280;4966;48.112;9.282;2023-01-31T08:55:18;95657.69;;;0.54;81.52
9855;BME280;4966;48.112;9.282;2023-01-31T08:57:43;95653.00;;;0.66;81.40
9855;BME280;4966;48.112;9.282;2023-01-31T09:00:10;95657.16;;;0.79;80.93
9855;BME280;4966;48.112;9.282;2023-01-31T09:02:36;95647.91;;;0.92;80.40
9855;BME280;4966;48.112;9.282;2023-01-31T09:05:01;95638.56;;;0.94;79.70
9855;BME280;4966;48.112;9.282;2023-01-31T09:07:27;95643.56;;;1.13;78.56
9855;BME280;4966;48.112;9.282;2023-01-31T09:09:52;95644.66;;;1.17;78.08
9855;BME280;4966;48.112;9.282;2023-01-31T09:12:17;95655.69;;;0.93;78.54
9855;BME280;4966;48.112;9.282;2023-01-31T09:14:43;95659.09;;;1.11;78.33
9855;BME280;4966;48.112;9.282;2023-01-31T09:17:08;95661.00;;;1.15;77.84
9855;BME280;4966;48.112;9.282;2023-01-31T09:19:35;95661.84;;;1.21;76.88
9855;BME280;4966;48.112;9.282;2023-01-31T09:22:01;95666.31;;;1.42;75.93
9855;BME280;4966;48.112;9.282;2023-01-31T09:24:26;95661.84;;;1.21;76.73
9855;BME280;4966;48.112;9.282;2023-01-31T09:26:51;95656.00;;;1.56;75.50
9855;BME280;4966;48.112;9.282;2023-01-31T09:29:18;95656.56;;;1.31;75.84
9855;BME280;4966;48.112;9.282;2023-01-31T09:31:43;95650.00;;;1.44;75.39
9855;BME280;4966;48.112;9.282;2023-01-31T09:34:09;95646.19;;;1.40;75.48
9855;BME280;4966;48.112;9.282;2023-01-31T09:36:34;95649.00;;;1.55;74.77
9855;BME280;4966;48.112;9.282;2023-01-31T09:39:00;95654.84;;;1.47;74.57
9855;BME280;4966;48.112;9.282;2023-01-31T09:41:49;95654.69;;;1.32;75.36
9855;BME280;4966;48.112;9.282;2023-01-31T09:44:19;95650.28;;;1.85;74.26
9855;BME280;4966;48.112;9.282;2023-01-31T09:46:55;95645.09;;;2.16;72.64
9855;BME280;4966;48.112;9.282;2023-01-31T09:49:51;95648.50;;;2.59;69.87
9855;BME280;4966;48.112;9.282;2023-01-31T09:52:17;95650.66;;;2.62;69.83
9855;BME280;4966;48.112;9.282;2023-01-31T09:54:43;95642.25;;;2.43;69.19
9855;BME280;4966;48.112;9.282;2023-01-31T09:59:47;95660.06;;;2.59;68.99
9855;BME280;4966;48.112;9.282;2023-01-31T10:05:21;95652.34;;;2.83;69.89
9855;BME280;4966;48.112;9.282;2023-01-31T10:10:44;95637.31;;;3.13;67.38
9855;BME280;4966;48.112;9.282;2023-01-31T10:13:17;95637.09;;;3.55;66.98
9855;BME280;4966;48.112;9.282;2023-01-31T10:18:38;95638.69;;;3.41;65.95
9855;BME280;4966;48.112;9.282;2023-01-31T10:21:10;95641.66;;;3.55;65.88
9855;BME280;4966;48.112;9.282;2023-01-31T10:23:48;95650.22;;;4.08;65.18
9855;BME280;4966;48.112;9.282;2023-01-31T10:26:32;95652.41;;;3.86;66.61
9855;BME280;4966;48.112;9.282;2023-01-31T10:29:22;95644.31;;;4.01;65.84
9855;BME280;4966;48.112;9.282;2023-01-31T10:32:11;95633.59;;;3.29;68.19
9855;BME280;4966;48.112;9.282;2023-01-31T10:35:22;95639.47;;;3.16;68.74
9855;BME280;4966;48.112;9.282;2023-01-31T10:37:52;95638.69;;;3.20;68.42
9855;BME280;4966;48.112;9.282;2023-01-31T10:40:40;95632.78;;;3.49;69.19
9855;BME280;4966;48.112;9.282;2023-01-31T10:45:35;95621.22;;;3.54;67.62
9855;BME280;4966;48.112;9.282;2023-01-31T10:48:15;95608.28;;;3.71;67.73
9855;BME280;4966;48.112;9.282;2023-01-31T10:56:05;95614.97;;;3.94;66.52
9855;BME280;4966;48.112;9.282;2023-01-31T10:58:33;95613.34;;;3.98;68.13
9855;BME280;4966;48.112;9.282;2023-01-31T11:00:59;95603.66;;;3.92;67.99
9855;BME280;4966;48.112;9.282;2023-01-31T11:03:25;95595.63;;;3.82;67.41
9855;BME280;4966;48.112;9.282;2023-01-31T11:05:56;95607.22;;;3.36;70.11
9855;BME280;4966;48.112;9.282;2023-01-31T11:08:56;95574.69;;;3.17;70.13
9855;BME280;4966;48.112;9.282;2023-01-31T11:11:24;95570.38;;;3.37;70.37
9855;BME280;4966;48.112;9.282;2023-01-31T11:14:04;95573.88;;;3.32;70.41
9855;BME280;4966;48.112;9.282;2023-01-31T11:16:35;95568.22;;;3.65;69.53
9855;BME280;4966;48.112;9.282;2023-01-31T11:19:21;95568.47;;;3.58;69.53
9855;BME280;4966;48.112;9.282;2023-01-31T11:21:52;95574.44;;;3.29;70.58
9855;BME280;4966;48.112;9.282;2023-01-31T11:24:22;95565.03;;;3.22;70.59
9855;BME280;4966;48.112;9.282;2023-01-31T11:26:58;95563.34;;;3.56;70.08
9855;BME280;4966;48.112;9.282;2023-01-31T11:29:29;95545.34;;;3.47;71.01
9855;BME280;4966;48.112;9.282;2023-01-31T11:31:57;95535.38;;;3.68;71.28
9855;BME280;4966;48.112;9.282;2023-01-31T11:34:29;95535.19;;;4.24;70.29
9855;BME280;4966;48.112;9.282;2023-01-31T11:37:15;95534.28;;;3.69;69.99
9855;BME280;4966;48.112;9.282;2023-01-31T11:39:41;95547.94;;;3.88;70.56
9855;BME280;4966;48.112;9.282;2023-01-31T11:42:14;95545.56;;;3.71;69.75
9855;BME280;4966;48.112;9.282;2023-01-31T11:47:38;95551.47;;;3.78;71.15
9855;BME280;4966;48.112;9.282;2023-01-31T11:50:04;95559.59;;;3.68;70.50
9855;BME280;4966;48.112;9.282;2023-01-31T11:52:32;95555.59;;;3.55;71.26
9855;BME280;4966;48.112;9.282;2023-01-31T11:55:02;95552.47;;;4.08;70.00
9855;BME280;4966;48.112;9.282;2023-01-31T11:57:34;95551.84;;;4.26;68.75
9855;BME280;4966;48.112;9.282;2023-01-31T12:00:05;95545.41;;;4.77;67.97
9855;BME280;4966;48.112;9.282;2023-01-31T12:02:35;95548.31;;;4.31;68.61
9855;BME280;4966;48.112;9.282;2023-01-31T12:05:16;95547.59;;;5.38;64.74
9855;BME280;4966;48.112;9.282;2023-01-31T12:10:47;95540.38;;;7.30;57.33
9855;BME280;4966;48.112;9.282;2023-01-31T12:13:19;95523.94;;;8.69;53.00
9855;BME280;4966;48.112;9.282;2023-01-31T12:15:57;95527.41;;;9.74;49.88
9855;BME280;4966;48.112;9.282;2023-01-31T12:21:28;95516.25;;;8.21;52.48
9855;BME280;4966;48.112;9.282;2023-01-31T12:26:54;95491.66;;;7.62;54.33
9855;BME280;4966;48.112;9.282;2023-01-31T12:35:01;95499.47;;;6.98;56.74
9855;BME280;4966;48.112;9.282;2023-01-31T12:40:13;95495.47;;;7.61;55.92
9855;BME280;4966;48.112;9.282;2023-01-31T12:56:28;95478.72;;;5.99;60.98
9855;BME280;4966;48.112;9.282;2023-01-31T12:59:37;95470.13;;;6.16;59.89
9855;BME280;4966;48.112;9.282;2023-01-31T13:07:18;95448.50;;;4.90;63.14
9855;BME280;4966;48.112;9.282;2023-01-31T13:09:49;95441.06;;;4.77;63.82
9855;BME280;4966;48.112;9.282;2023-01-31T13:12:19;95438.50;;;4.96;62.98
9855;BME280;4966;48.112;9.282;2023-01-31T13:14:52;95428.41;;;5.07;62.83
9855;BME280;4966;48.112;9.282;2023-01-31T13:17:27;95423.75;;;5.66;60.49
9855;BME280;4966;48.112;9.282;2023-01-31T13:22:46;95414.38;;;5.82;61.69
9855;BME280;4966;48.112;9.282;2023-01-31T13:25:50;95401.91;;;5.38;62.26
9855;BME280;4966;48.112;9.282;2023-01-31T13:28:22;95408.59;;;5.70;62.47
9855;BME280;4966;48.112;9.282;2023-01-31T13:31:01;95402.16;;;5.42;62.16
9855;BME280;4966;48.112;9.282;2023-01-31T13:33:35;95407.63;;;6.04;61.33
9855;BME280;4966;48.112;9.282;2023-01-31T13:38:38;95411.88;;;5.86;61.17
9855;BME280;4966;48.112;9.282;2023-01-31T13:41:08;95424.28;;;6.30;59.86
9855;BME280;4966;48.112;9.282;2023-01-31T13:43:36;95407.69;;;5.74;60.29
9855;BME280;4966;48.112;9.282;2023-01-31T13:46:04;95409.59;;;5.50;61.33
9855;BME280;4966;48.112;9.282;2023-01-31T13:48:35;95413.69;;;5.23;62.21
9855;BME280;4966;48.112;9.282;2023-01-31T13:51:15;95419.94;;;5.19;62.08
9855;BME280;4966;48.112;9.282;2023-01-31T13:53:49;95417.94;;;5.00;62.30
9855;BME280;4966;48.112;9.282;2023-01-31T13:56:27;95423.06;;;4.73;64.28
9855;BME280;4966;48.112;9.282;2023-01-31T13:58:54;95417.44;;;4.64;64.06
9855;BME280;4966;48.112;9.282;2023-01-31T14:01:24;95413.75;;;4.89;64.30
9855;BME280;4966;48.112;9.282;2023-01-31T14:09:32;95417.22;;;4.60;65.21
9855;BME280;4966;48.112;9.282;2023-01-31T14:12:00;95405.31;;;4.66;65.06
9855;BME280;4966;48.112;9.282;2023-01-31T14:17:02;95404.72;;;4.75;64.32
9855;BME280;4966;48.112;9.282;2023-01-31T14:27:20;95376.84;;;3.76;67.62
9855;BME280;4966;48.112;9.282;2023-01-31T14:29:48;95365.25;;;3.81;68.33
9855;BME280;4966;48.112;9.282;2023-01-31T14:32:27;95361.34;;;3.58;69.60
9855;BME280;4966;48.112;9.282;2023-01-31T14:34:54;95368.81;;;3.66;69.39
9855;BME280;4966;48.112;9.282;2023-01-31T14:40:29;95392.16;;;3.76;69.53
9855;BME280;4966;48.112;9.282;2023-01-31T14:43:09;95401.72;;;3.53;69.73
9855;BME280;4966;48.112;9.282;2023-01-31T14:49:05;95403.00;;;3.60;70.36
9855;BME280;4966;48.112;9.282;2023-01-31T15:02:50;95425.13;;;3.52;71.54
9855;BME280;4966;48.112;9.282;2023-01-31T15:05:37;95429.56;;;3.82;70.76
9855;BME280;4966;48.112;9.282;2023-01-31T15:13:36;95416.88;;;3.28;72.20
9855;BME280;4966;48.112;9.282;2023-01-31T15:16:06;95404.44;;;3.43;72.58
9855;BME280;4966;48.112;9.282;2023-01-31T15:18:31;95402.41;;;2.98;73.99
9855;BME280;4966;48.112;9.282;2023-01-31T15:21:01;95402.69;;;3.02;74.18
9855;BME280;4966;48.112;9.282;2023-01-31T15:23:30;95417.94;;;3.22;73.39
9855;BME280;4966;48.112;9.282;2023-01-31T15:25:57;95423.00;;;3.39;73.21
9855;BME280;4966;48.112;9.282;2023-01-31T15:28:30;95421.91;;;3.45;72.77
9855;BME280;4966;48.112;9.282;2023-01-31T15:31:01;95411.13;;;3.55;72.16
9855;BME280;4966;48.112;9.282;2023-01-31T15:33:31;95398.25;;;3.47;72.88
9855;BME280;4966;48.112;9.282;2023-01-31T15:36:06;95407.66;;;3.50;72.84
9855;BME280;4966;48.112;9.282;2023-01-31T15:38:48;95400.44;;;3.40;72.70
9855;BME280;4966;48.112;9.282;2023-01-31T15:41:20;95394.47;;;3.48;72.39
9855;BME280;4966;48.112;9.282;2023-01-31T15:43:51;95383.47;;;3.39;73.17
9855;BME280;4966;48.112;9.282;2023-01-31T15:46:31;95367.94;;;3.21;73.52
9855;BME280;4966;48.112;9.282;2023-01-31T15:48:58;95379.81;;;3.10;73.09
9855;BME280;4966;48.112;9.282;2023-01-31T15:51:25;95387.47;;;3.42;72.38
9855;BME280;4966;48.112;9.282;2023-01-31T15:54:05;95392.66;;;3.23;71.83
9855;BME280;4966;48.112;9.282;2023-01-31T15:56:36;95391.84;;;3.28;71.60
9855;BME280;4966;48.112;9.282;2023-01-31T15:59:09;95379.13;;;3.49;71.42
9855;BME280;4966;48.112;9.282;2023-01-31T16:01:35;95378.78;;;3.66;70.40
9855;BME280;4966;48.112;9.282;2023-01-31T16:04:00;95378.50;;;3.02;71.45
9855;BME280;4966;48.112;9.282;2023-01-31T16:06:29;95373.59;;;3.14;71.56
9855;BME280;4966;48.112;9.282;2023-01-31T16:08:58;95366.41;;;3.00;72.14